Time;durP1;ratioP1;P1;durP2;ratioP2;P2;SDS_P1;SDS_P2;PMS_P1;PMS_P2;Temp;Humidity;BMP_temperature;BMP_pressure;BME280_temperature;BME280_humidity;BME280_pressure;Samples;Min_cycle;Max_cycle;Signal;HPM_P1;HPM_P2
2023/01/22 00:01:19;;;;;;;1.23;1.13;;;1.00;97.30;;;;;;5034579;28;20183;-90
2023/01/22 00:03:45;;;;;;;4.40;2.30;;;1.00;97.30;;;;;;5051716;28;20682;-90
2023/01/22 00:06:11;;;;;;;1.10;1.00;;;1.00;97.30;;;;;;5034524;28;20183;-89
2023/01/22 00:08:37;;;;;;;2.17;2.00;;;1.00;97.30;;;;;;5053558;28;20421;-89
2023/01/22 00:11:03;;;;;;;1.53;1.43;;;1.00;97.30;;;;;;5053681;28;21106;-89
2023/01/22 00:13:29;;;;;;;1.10;1.00;;;1.00;97.30;;;;;;5053595;28;20205;-90
2023/01/22 00:15:59;;;;;;;1.20;1.10;;;1.00;97.30;;;;;;5052806;28;20555;-89
2023/01/22 00:18:25;;;;;;;1.73;1.63;;;1.00;97.30;;;;;;5054043;28;20171;-89
2023/01/22 00:20:52;;;;;;;1.30;1.20;;;1.00;97.30;;;;;;5071653;28;20451;-89
2023/01/22 00:23:18;;;;;;;2.20;1.83;;;1.00;97.30;;;;;;5054190;28;20947;-89
2023/01/22 00:25:44;;;;;;;2.50;2.30;;;1.00;97.30;;;;;;5072254;28;20419;-89
2023/01/22 00:28:11;;;;;;;1.17;1.10;;;1.00;97.30;;;;;;5054980;28;20421;-89
2023/01/22 00:30:37;;;;;;;1.60;1.50;;;1.00;97.30;;;;;;5074108;28;20431;-92
2023/01/22 00:33:03;;;;;;;1.87;1.77;;;1.00;97.30;;;;;;5078182;28;20425;-92
2023/01/22 00:35:28;;;;;;;1.40;1.30;;;1.00;97.30;;;;;;5077792;28;20495;-91
2023/01/22 00:37:54;;;;;;;2.67;2.47;;;1.00;97.30;;;;;;5077631;28;20472;-94
2023/01/22 00:40:19;;;;;;;1.20;1.10;;;1.00;97.30;;;;;;5077368;28;20186;-92
2023/01/22 00:42:45;;;;;;;1.30;1.20;;;1.00;97.30;;;;;;5077450;28;20171;-92
2023/01/22 00:45:13;;;;;;;2.50;2.30;;;1.00;97.30;;;;;;5077208;28;20211;-93
2023/01/22 00:47:39;;;;;;;1.00;0.90;;;1.00;97.30;;;;;;5077124;28;20179;-91
2023/01/22 00:50:05;;;;;;;2.57;1.37;;;1.00;97.30;;;;;;5095693;28;20423;-93
2023/01/22 00:52:30;;;;;;;1.00;0.90;;;1.00;97.30;;;;;;5079356;28;20431;-94
2023/01/22 00:54:56;;;;;;;1.10;1.00;;;1.00;97.30;;;;;;5094350;28;20496;-88
2023/01/22 00:57:21;;;;;;;1.80;1.70;;;1.00;97.30;;;;;;5054018;28;20544;-88
2023/01/22 00:59:48;;;;;;;1.30;1.20;;;1.00;97.30;;;;;;5070844;28;20176;-88
2023/01/22 01:02:14;;;;;;;1.30;1.20;;;1.00;97.30;;;;;;5053104;28;20175;-88
2023/01/22 01:04:39;;;;;;;1.20;1.10;;;1.00;97.30;;;;;;5052812;28;20457;-88
2023/01/22 01:07:05;;;;;;;1.63;1.53;;;1.00;97.30;;;;;;5052436;28;20424;-89
2023/01/22 01:09:30;;;;;;;1.87;1.77;;;1.00;97.30;;;;;;5052875;28;20179;-88
2023/01/22 01:11:56;;;;;;;1.90;1.33;;;1.00;97.30;;;;;;5070645;28;20276;-88
2023/01/22 01:14:22;;;;;;;2.07;1.93;;;1.00;97.30;;;;;;5052403;28;20199;-91
2023/01/22 01:16:49;;;;;;;1.00;0.90;;;1.00;97.30;;;;;;5070488;28;20762;-87
2023/01/22 01:19:16;;;;;;;1.07;0.97;;;1.00;97.30;;;;;;5052670;28;20217;-88
2023/01/22 01:21:45;;;;;;;1.67;1.57;;;1.00;97.30;;;;;;5052662;28;20435;-89
2023/01/22 01:24:11;;;;;;;1.50;1.40;;;1.00;97.30;;;;;;5051936;28;20745;-88
2023/01/22 01:26:39;;;;;;;1.30;1.20;;;1.00;97.30;;;;;;5051889;28;20516;-89
2023/01/22 01:29:06;;;;;;;2.97;1.47;;;1.00;97.30;;;;;;5052221;28;20186;-88
2023/01/22 01:31:32;;;;;;;1.47;1.37;;;1.00;97.30;;;;;;5052298;28;20413;-88
2023/01/22 01:33:58;;;;;;;1.77;1.67;;;1.00;97.30;;;;;;5052283;28;20499;-89
2023/01/22 01:36:24;;;;;;;1.20;1.10;;;1.00;97.30;;;;;;5052045;28;20205;-88
2023/01/22 01:38:50;;;;;;;1.97;1.47;;;1.00;97.30;;;;;;5070153;28;20461;-89
2023/01/22 01:41:19;;;;;;;1.30;1.20;;;1.00;97.30;;;;;;5052148;28;20504;-88
2023/01/22 01:43:45;;;;;;;2.30;2.10;;;1.00;97.30;;;;;;5052121;28;20457;-89
2023/01/22 01:46:23;;;;;;;2.40;1.77;;;1.00;97.30;;;;;;5052233;28;20940;-88
2023/01/22 01:48:54;;;;;;;1.60;1.50;;;1.00;97.30;;;;;;5051321;28;20429;-89
2023/01/22 01:51:31;;;;;;;1.00;0.90;;;1.00;97.30;;;;;;5051843;28;20436;-87
2023/01/22 01:53:58;;;;;;;1.47;1.37;;;1.00;97.30;;;;;;5051020;28;20468;-89
2023/01/22 01:56:31;;;;;;;1.63;1.53;;;1.00;97.30;;;;;;5052187;28;20472;-88
2023/01/22 01:59:02;;;;;;;1.37;1.30;;;1.00;97.30;;;;;;5051814;28;20439;-87
2023/01/22 02:01:29;;;;;;;1.00;0.90;;;1.00;97.30;;;;;;5051834;28;20436;-88
2023/01/22 02:03:56;;;;;;;1.30;1.20;;;0.90;97.30;;;;;;5052014;28;20433;-89
2023/01/22 02:06:22;;;;;;;1.80;1.47;;;1.00;97.30;;;;;;5051958;28;20413;-88
2023/01/22 02:08:49;;;;;;;1.40;1.30;;;0.90;97.30;;;;;;5052073;28;20425;-90
2023/01/22 02:11:17;;;;;;;1.00;0.90;;;1.00;97.30;;;;;;5051621;28;20421;-88
2023/01/22 02:13:48;;;;;;;1.30;1.20;;;1.00;97.30;;;;;;5051912;28;20473;-88
2023/01/22 02:16:13;;;;;;;2.70;1.27;;;1.00;97.30;;;;;;5051941;28;20464;-88
2023/01/22 02:18:39;;;;;;;1.20;1.10;;;1.00;97.30;;;;;;5052027;28;20789;-88
2023/01/22 02:21:35;;;;;;;1.97;1.80;;;1.00;97.30;;;;;;5051732;28;20183;-88
2023/01/22 02:24:06;;;;;;;1.80;1.50;;;1.00;97.30;;;;;;5051767;28;20544;-89
2023/01/22 02:26:32;;;;;;;1.57;1.47;;;1.00;97.30;;;;;;5051802;28;20489;-89
2023/01/22 02:28:58;;;;;;;1.23;1.13;;;1.00;97.30;;;;;;5052025;28;20658;-88
2023/01/22 02:31:23;;;;;;;1.00;0.90;;;1.00;97.30;;;;;;5051192;28;20171;-89
2023/01/22 02:33:49;;;;;;;1.63;1.53;;;1.00;97.30;;;;;;5051906;28;20562;-88
2023/01/22 02:36:15;;;;;;;2.77;2.57;;;1.00;97.30;;;;;;5050912;28;20191;-89
2023/01/22 02:38:40;;;;;;;1.00;0.90;;;1.00;97.30;;;;;;5069820;28;20191;-88
2023/01/22 02:41:07;;;;;;;1.30;1.20;;;1.00;97.30;;;;;;5055038;28;20484;-88
2023/01/22 02:43:32;;;;;;;1.20;1.10;;;1.00;97.30;;;;;;5073427;28;20183;-89
2023/01/22 02:45:58;;;;;;;1.20;1.10;;;1.00;97.30;;;;;;5072968;28;20416;-88
2023/01/22 02:48:23;;;;;;;1.17;1.07;;;1.00;97.30;;;;;;5055561;28;20248;-90
2023/01/22 02:50:49;;;;;;;1.43;1.33;;;1.00;97.30;;;;;;5055009;28;20763;-88
2023/01/22 02:53:27;;;;;;;4.73;2.03;;;1.00;97.30;;;;;;5056703;28;20189;-89
2023/01/22 02:55:53;;;;;;;1.83;1.73;;;1.00;97.30;;;;;;5089052;28;20245;-90
2023/01/22 02:58:18;;;;;;;1.10;1.00;;;1.00;97.30;;;;;;5091480;28;20452;-90
2023/01/22 03:00:44;;;;;;;5.73;2.30;;;1.00;97.30;;;;;;5091989;28;20167;-90
2023/01/22 03:03:14;;;;;;;1.80;1.70;;;1.00;97.30;;;;;;5092049;28;20174;-90
2023/01/22 03:05:47;;;;;;;1.00;0.90;;;1.00;97.30;;;;;;5092095;28;20254;-90
2023/01/22 03:08:12;;;;;;;2.50;1.33;;;1.00;97.30;;;;;;5091862;28;20409;-90
2023/01/22 03:10:38;;;;;;;1.00;0.90;;;1.00;97.30;;;;;;5092629;28;20423;-89
2023/01/22 03:21:15;;;;;;;2.23;1.80;;;1.00;97.30;;;;;;5093109;28;20403;-90
2023/01/22 03:23:43;;;;;;;1.00;0.90;;;1.00;97.30;;;;;;5091190;28;20432;-89
2023/01/22 03:26:09;;;;;;;1.47;1.37;;;1.00;97.30;;;;;;5091225;28;20224;-90
2023/01/22 03:28:35;;;;;;;1.00;0.90;;;1.00;97.30;;;;;;5090957;28;20404;-90
2023/01/22 03:31:01;;;;;;;2.97;1.70;;;1.00;97.30;;;;;;5091006;28;20183;-90
2023/01/22 03:33:26;;;;;;;1.50;1.40;;;1.00;97.30;;;;;;5091298;28;20979;-90
2023/01/22 03:35:52;;;;;;;1.93;1.83;;;1.00;97.30;;;;;;5091055;28;20748;-90
2023/01/22 03:38:18;;;;;;;2.20;1.30;;;1.00;97.30;;;;;;5092186;28;20312;-89
2023/01/22 03:40:43;;;;;;;2.03;1.90;;;1.00;97.30;;;;;;5091020;28;20170;-89
2023/01/22 03:43:09;;;;;;;6.97;2.07;;;1.00;97.30;;;;;;5091063;28;20454;-90
2023/01/22 03:45:35;;;;;;;2.23;2.03;;;1.00;97.30;;;;;;5090972;28;20198;-90
2023/01/22 03:48:01;;;;;;;1.37;1.27;;;1.00;97.30;;;;;;5090845;28;20182;-90
2023/01/22 03:50:27;;;;;;;1.70;1.60;;;1.00;97.30;;;;;;5090784;28;20265;-89
2023/01/22 03:52:52;;;;;;;1.47;1.30;;;1.00;97.30;;;;;;5090942;28;20413;-90
2023/01/22 03:55:18;;;;;;;1.17;1.10;;;1.00;97.30;;;;;;5090781;28;20530;-90
2023/01/22 03:57:43;;;;;;;1.20;1.10;;;1.00;97.30;;;;;;5090109;28;20221;-90
2023/01/22 04:00:11;;;;;;;1.70;1.60;;;1.00;97.30;;;;;;5088984;28;20170;-90
2023/01/22 04:02:37;;;;;;;1.80;1.77;;;1.00;97.30;;;;;;5068725;28;20221;-90
2023/01/22 04:05:02;;;;;;;1.30;1.20;;;1.00;97.30;;;;;;5069879;28;20437;-90
2023/01/22 04:07:28;;;;;;;1.10;1.00;;;1.10;97.30;;;;;;5070169;28;20732;-90
2023/01/22 04:09:53;;;;;;;4.87;2.60;;;1.00;97.30;;;;;;5091077;28;20179;-90
2023/01/22 04:12:19;;;;;;;1.23;1.13;;;1.00;97.30;;;;;;5070197;28;20345;-90
2023/01/22 04:14:44;;;;;;;1.00;0.90;;;1.00;97.30;;;;;;5070694;28;20237;-89
2023/01/22 04:17:10;;;;;;;1.83;1.63;;;1.00;97.30;;;;;;5069819;28;20171;-89
2023/01/22 04:19:35;;;;;;;1.77;1.67;;;1.00;97.30;;;;;;5090172;28;20185;-90
2023/01/22 04:22:01;;;;;;;4.73;2.10;;;1.00;97.30;;;;;;5090083;28;20169;-89
2023/01/22 04:24:26;;;;;;;1.40;1.30;;;1.00;97.30;;;;;;5089945;28;20193;-90
2023/01/22 04:26:52;;;;;;;1.67;1.20;;;1.00;97.30;;;;;;5090046;28;20171;-90
2023/01/22 04:29:18;;;;;;;1.53;1.43;;;1.00;97.30;;;;;;5091767;28;20273;-90
2023/01/22 04:31:43;;;;;;;1.20;1.10;;;1.00;97.30;;;;;;5089239;28;20178;-90
2023/01/22 04:34:09;;;;;;;1.93;1.80;;;1.00;97.30;;;;;;5089579;28;20432;-90
2023/01/22 04:36:35;;;;;;;1.40;1.30;;;1.00;97.30;;;;;;5089625;28;20207;-90
2023/01/22 04:39:00;;;;;;;1.83;1.77;;;1.00;97.30;;;;;;5090051;28;20178;-90
2023/01/22 04:41:26;;;;;;;2.50;1.90;;;1.00;97.30;;;;;;5089647;28;20181;-89
2023/01/22 04:43:51;;;;;;;2.00;1.90;;;1.00;97.30;;;;;;5089077;28;20186;-90
2023/01/22 04:46:17;;;;;;;3.07;1.80;;;1.00;97.30;;;;;;5089868;28;20174;-89
2023/01/22 04:48:42;;;;;;;1.57;1.47;;;1.00;97.30;;;;;;5090902;28;20170;-90
2023/01/22 04:51:08;;;;;;;1.87;1.77;;;1.00;97.30;;;;;;5089685;28;20170;-90
2023/01/22 04:53:33;;;;;;;1.43;1.33;;;1.00;97.30;;;;;;5089046;28;20213;-90
2023/01/22 04:55:59;;;;;;;1.77;1.60;;;1.00;97.30;;;;;;5090576;28;20297;-89
2023/01/22 04:58:24;;;;;;;1.30;1.20;;;1.00;97.30;;;;;;5090803;28;20182;-90
2023/01/22 05:00:50;;;;;;;1.53;1.43;;;1.00;97.30;;;;;;5106118;28;20224;-90
2023/01/22 05:03:15;;;;;;;1.67;1.57;;;1.00;97.30;;;;;;5108945;28;20170;-91
2023/01/22 05:05:41;;;;;;;1.27;1.17;;;1.00;97.30;;;;;;5115241;28;20170;-90
2023/01/22 05:08:06;;;;;;;1.73;1.63;;;1.00;97.30;;;;;;5130663;28;20208;-90
2023/01/22 05:10:32;;;;;;;2.70;2.00;;;1.00;97.30;;;;;;5117162;28;20241;-91
2023/01/22 05:13:01;;;;;;;2.40;2.23;;;1.00;97.30;;;;;;5115544;28;20166;-90
2023/01/22 05:15:27;;;;;;;1.00;0.90;;;1.00;97.30;;;;;;5115671;28;20258;-91
2023/01/22 05:17:52;;;;;;;1.33;1.23;;;1.00;97.30;;;;;;5115732;28;20404;-91
2023/01/22 05:20:18;;;;;;;1.30;1.17;;;1.00;97.30;;;;;;5115478;28;20234;-91
2023/01/22 05:22:43;;;;;;;1.23;1.13;;;1.00;97.30;;;;;;5115788;28;20242;-91
2023/01/22 05:25:09;;;;;;;2.73;2.37;;;1.00;97.30;;;;;;5115407;28;20216;-92
2023/01/22 05:27:34;;;;;;;2.60;1.43;;;1.00;97.30;;;;;;5115948;28;20175;-91
2023/01/22 05:30:00;;;;;;;1.17;1.07;;;1.00;97.30;;;;;;5111627;28;20221;-90
2023/01/22 05:32:25;;;;;;;1.90;1.80;;;1.00;97.30;;;;;;5091327;28;20185;-91
2023/01/22 05:34:51;;;;;;;1.60;1.50;;;1.00;97.30;;;;;;5090014;28;20194;-91
2023/01/22 05:37:16;;;;;;;2.20;2.00;;;1.00;97.30;;;;;;5090855;28;20253;-91
2023/01/22 05:39:42;;;;;;;1.60;1.50;;;1.00;97.30;;;;;;5089713;28;20178;-91
2023/01/22 05:42:12;;;;;;;3.37;1.77;;;1.00;97.30;;;;;;5089563;28;20266;-90
2023/01/22 05:44:38;;;;;;;1.33;1.33;;;1.00;97.30;;;;;;5090268;28;20194;-90
2023/01/22 05:47:03;;;;;;;1.43;1.40;;;1.00;97.30;;;;;;5089392;28;20418;-91
2023/01/22 05:49:29;;;;;;;1.50;1.40;;;1.00;97.30;;;;;;5089175;28;20262;-90
2023/01/22 05:51:54;;;;;;;1.43;1.33;;;1.00;97.30;;;;;;5089566;28;20641;-90
2023/01/22 05:54:20;;;;;;;1.10;1.00;;;1.00;97.30;;;;;;5089273;28;20233;-89
2023/01/22 05:56:46;;;;;;;1.40;1.30;;;1.00;97.30;;;;;;5089860;28;20267;-90
2023/01/22 05:59:11;;;;;;;1.53;1.43;;;1.00;97.30;;;;;;5089380;28;20181;-90
2023/01/22 06:01:37;;;;;;;1.23;1.17;;;1.00;97.30;;;;;;5089312;28;20629;-90
2023/01/22 06:04:03;;;;;;;1.27;1.17;;;1.00;97.30;;;;;;5106119;28;20445;-90
2023/01/22 06:06:28;;;;;;;1.40;1.30;;;1.00;97.30;;;;;;5106426;28;20245;-89
2023/01/22 06:08:54;;;;;;;1.67;1.50;;;1.00;97.30;;;;;;5105904;28;20174;-90
2023/01/22 06:11:19;;;;;;;1.20;1.10;;;1.00;97.30;;;;;;5105704;28;20247;-89
2023/01/22 06:13:46;;;;;;;3.40;2.53;;;1.00;97.30;;;;;;5091140;28;20195;-90
2023/01/22 06:16:11;;;;;;;4.30;2.77;;;1.00;97.30;;;;;;5109992;28;20198;-90
2023/01/22 06:18:37;;;;;;;1.50;1.40;;;1.00;97.30;;;;;;5110275;28;20420;-91
2023/01/22 06:21:04;;;;;;;1.30;1.20;;;1.00;97.30;;;;;;5109978;28;20202;-90
2023/01/22 06:23:30;;;;;;;1.90;1.80;;;1.00;97.30;;;;;;5094606;28;20175;-90
2023/01/22 06:25:58;;;;;;;1.20;1.10;;;1.00;97.30;;;;;;5092444;28;20427;-90
2023/01/22 06:28:24;;;;;;;1.50;1.40;;;1.00;97.30;;;;;;5094635;28;20506;-90
2023/01/22 06:30:51;;;;;;;1.37;1.27;;;1.00;97.30;;;;;;5109191;28;20435;-91
2023/01/22 06:33:17;;;;;;;1.33;1.23;;;1.00;97.30;;;;;;5100994;28;20415;-90
2023/01/22 06:35:42;;;;;;;1.27;1.17;;;1.00;97.30;;;;;;5092455;28;20456;-90
2023/01/22 06:38:08;;;;;;;1.07;1.00;;;1.00;97.30;;;;;;5092422;28;21104;-90
2023/01/22 06:40:34;;;;;;;2.47;1.50;;;1.00;97.30;;;;;;5092111;28;20223;-90
2023/01/22 06:43:07;;;;;;;1.67;1.57;;;1.00;97.30;;;;;;5092392;28;20170;-90
2023/01/22 06:45:33;;;;;;;1.63;1.53;;;1.00;97.30;;;;;;5092138;28;20528;-90
2023/01/22 06:47:58;;;;;;;1.33;1.23;;;1.00;97.30;;;;;;5091858;28;20469;-89
2023/01/22 06:50:24;;;;;;;1.47;1.37;;;1.00;97.30;;;;;;5091966;28;20177;-89
2023/01/22 06:52:49;;;;;;;1.27;1.17;;;1.00;97.30;;;;;;5092020;28;20177;-89
2023/01/22 06:55:15;;;;;;;2.33;2.10;;;1.00;97.30;;;;;;5091781;28;20224;-90
2023/01/22 06:57:41;;;;;;;2.47;2.27;;;1.00;97.30;;;;;;5091794;28;20315;-90
2023/01/22 07:00:07;;;;;;;3.03;2.83;;;1.00;97.30;;;;;;5093159;28;20224;-91
2023/01/22 07:02:32;;;;;;;1.97;1.77;;;1.00;97.30;;;;;;5091989;28;20543;-91
2023/01/22 07:04:58;;;;;;;1.67;1.37;;;1.00;97.30;;;;;;5091814;28;20437;-90
2023/01/22 07:07:23;;;;;;;2.17;2.00;;;1.00;97.30;;;;;;5091738;28;20179;-89
2023/01/22 07:09:49;;;;;;;3.53;1.67;;;1.00;97.30;;;;;;5091761;28;20174;-90
2023/01/22 07:12:14;;;;;;;2.27;2.07;;;1.00;97.30;;;;;;5092059;28;20177;-88
2023/01/22 07:14:40;;;;;;;1.87;1.77;;;1.00;97.30;;;;;;5092701;28;20205;-91
2023/01/22 07:17:05;;;;;;;1.30;1.20;;;1.00;97.30;;;;;;5092976;28;20202;-90
2023/01/22 07:19:31;;;;;;;3.30;2.30;;;1.10;97.30;;;;;;5091461;28;20171;-91
2023/01/22 07:21:56;;;;;;;1.53;1.43;;;1.00;97.30;;;;;;5092678;28;20185;-90
2023/01/22 07:24:22;;;;;;;1.40;1.30;;;1.00;97.30;;;;;;5090607;28;20281;-91
2023/01/22 07:26:48;;;;;;;13.37;3.13;;;1.00;97.30;;;;;;5091469;28;20175;-90
2023/01/22 07:29:13;;;;;;;1.77;1.67;;;1.10;97.30;;;;;;5090624;28;20212;-90
2023/01/22 07:31:39;;;;;;;1.00;0.90;;;1.10;97.30;;;;;;5091009;28;20456;-90
2023/01/22 07:34:05;;;;;;;1.67;1.57;;;1.10;97.30;;;;;;5090213;28;20232;-91
2023/01/22 07:36:31;;;;;;;3.53;3.33;;;1.10;97.30;;;;;;5089694;28;20210;-90
2023/01/22 07:38:56;;;;;;;1.77;1.67;;;1.10;97.30;;;;;;5089071;28;20992;-90
2023/01/22 07:41:22;;;;;;;1.53;1.43;;;1.10;97.30;;;;;;5090645;28;20171;-90
2023/01/22 07:43:51;;;;;;;3.73;3.53;;;1.10;97.30;;;;;;5102015;28;20187;-90
2023/01/22 07:46:17;;;;;;;2.10;1.87;;;1.10;97.30;;;;;;5106805;28;20174;-90
2023/01/22 07:48:44;;;;;;;2.43;2.23;;;1.00;97.30;;;;;;5106800;28;20506;-90
2023/01/22 07:51:11;;;;;;;1.70;1.60;;;1.10;97.30;;;;;;5107982;28;20179;-90
2023/01/22 07:53:36;;;;;;;2.50;2.30;;;1.10;97.30;;;;;;5107338;28;20513;-91
2023/01/22 07:56:02;;;;;;;1.60;1.50;;;1.10;97.30;;;;;;5089363;28;20483;-90
2023/01/22 07:58:28;;;;;;;4.00;2.03;;;1.10;97.30;;;;;;5108091;28;20274;-90
2023/01/22 08:00:53;;;;;;;1.10;1.00;;;1.10;97.30;;;;;;5100834;28;20416;-89
2023/01/22 08:03:19;;;;;;;2.40;1.80;;;1.10;97.30;;;;;;5089818;28;20170;-90
2023/01/22 08:05:45;;;;;;;2.73;2.53;;;1.10;97.30;;;;;;5089186;28;20182;-90
2023/01/22 08:08:13;;;;;;;1.60;1.50;;;1.10;97.30;;;;;;5090407;28;20186;-89
2023/01/22 08:10:39;;;;;;;1.70;1.60;;;1.10;97.30;;;;;;5091435;28;20426;-89
2023/01/22 08:13:05;;;;;;;1.33;1.23;;;1.10;97.30;;;;;;5091223;28;20424;-90
2023/01/22 08:15:31;;;;;;;2.17;2.00;;;1.10;97.30;;;;;;5089849;28;20881;-91
2023/01/22 08:17:57;;;;;;;1.53;1.47;;;1.10;97.30;;;;;;5090049;28;20656;-90
2023/01/22 08:20:22;;;;;;;1.17;1.07;;;1.10;97.30;;;;;;5090161;28;20500;-90
2023/01/22 08:22:48;;;;;;;4.03;2.43;;;1.10;97.30;;;;;;5091321;28;20178;-90
2023/01/22 08:25:14;;;;;;;3.13;1.93;;;1.10;97.30;;;;;;5090200;28;20194;-91
2023/01/22 08:27:39;;;;;;;1.27;1.17;;;1.10;97.30;;;;;;5090172;28;20173;-89
2023/01/22 08:30:06;;;;;;;4.07;2.10;;;1.10;97.30;;;;;;5091647;28;20175;-90
2023/01/22 08:32:32;;;;;;;1.70;1.60;;;1.10;97.30;;;;;;5090204;28;20550;-90
2023/01/22 08:34:57;;;;;;;1.50;1.40;;;1.10;97.30;;;;;;5089715;28;20436;-90
2023/01/22 08:37:23;;;;;;;1.63;1.53;;;1.20;97.30;;;;;;5088688;28;20217;-90
2023/01/22 08:39:49;;;;;;;1.40;1.30;;;1.10;97.30;;;;;;5088358;28;20603;-90
2023/01/22 08:42:15;;;;;;;1.33;1.27;;;1.10;97.30;;;;;;5088408;28;20413;-90
2023/01/22 08:44:40;;;;;;;2.50;1.67;;;1.10;97.30;;;;;;5089325;28;20308;-89
2023/01/22 08:47:06;;;;;;;2.23;2.03;;;1.20;97.30;;;;;;5090436;28;20209;-89
2023/01/22 08:49:32;;;;;;;1.20;1.10;;;1.10;97.30;;;;;;5090827;28;20277;-89
2023/01/22 08:51:57;;;;;;;1.30;1.20;;;1.10;97.30;;;;;;5093196;28;20648;-89
2023/01/22 08:54:23;;;;;;;1.43;1.33;;;1.20;97.30;;;;;;5126612;22;20229;-89
2023/01/22 08:56:48;;;;;;;2.80;1.57;;;1.20;97.30;;;;;;5070605;28;20233;-86
2023/01/22 08:59:15;;;;;;;1.53;1.43;;;1.10;97.30;;;;;;5071624;28;20181;-89
2023/01/22 09:01:40;;;;;;;1.33;1.23;;;1.20;97.30;;;;;;5072488;28;20171;-88
2023/01/22 09:04:07;;;;;;;1.20;1.10;;;1.20;97.30;;;;;;5072755;28;20413;-87
2023/01/22 09:06:35;;;;;;;4.53;1.87;;;1.20;97.30;;;;;;5072597;28;20261;-87
2023/01/22 09:09:01;;;;;;;1.90;1.80;;;1.20;97.30;;;;;;5092452;28;20485;-88
2023/01/22 09:11:28;;;;;;;4.70;3.00;;;1.20;97.30;;;;;;5074101;28;20420;-87
2023/01/22 09:13:55;;;;;;;1.40;1.30;;;1.20;97.30;;;;;;5074741;28;20206;-87
2023/01/22 09:16:26;;;;;;;1.80;1.07;;;1.20;97.30;;;;;;5074066;28;20491;-87
2023/01/22 09:19:15;;;;;;;1.10;1.00;;;1.20;97.30;;;;;;5074775;28;20455;-87
2023/01/22 09:21:47;;;;;;;1.20;1.10;;;1.20;97.30;;;;;;5063901;28;20421;-87
2023/01/22 09:24:16;;;;;;;1.90;1.80;;;1.20;97.30;;;;;;5074345;28;20832;-87
2023/01/22 09:26:56;;;;;;;1.77;1.67;;;1.20;97.30;;;;;;5074598;28;20450;-87
2023/01/22 09:29:30;;;;;;;1.63;1.53;;;1.20;97.30;;;;;;5074681;28;20962;-87
2023/01/22 09:32:05;;;;;;;2.73;2.13;;;1.20;97.30;;;;;;5073684;28;20484;-87
2023/01/22 09:34:36;;;;;;;2.80;2.60;;;1.30;97.30;;;;;;5078577;28;20515;-87
2023/01/22 09:37:26;;;;;;;1.13;1.03;;;1.30;97.30;;;;;;5094282;28;20456;-86
2023/01/22 09:40:36;;;;;;;1.80;1.70;;;1.30;97.30;;;;;;5094608;28;20416;-87
2023/01/22 09:43:46;;;;;;;2.70;1.70;;;1.30;97.30;;;;;;5060102;28;20473;-86
2023/01/22 09:46:26;;;;;;;1.37;1.27;;;1.20;97.30;;;;;;5077313;28;20447;-87
2023/01/22 09:49:16;;;;;;;3.20;3.00;;;1.20;97.30;;;;;;5115761;28;20471;-87
2023/01/22 09:52:23;;;;;;;8.93;2.90;;;1.20;97.30;;;;;;5098158;28;20779;-88
2023/01/22 09:54:48;;;;;;;3.67;1.70;;;1.20;97.30;;;;;;5098366;28;20484;-87
2023/01/22 09:57:14;;;;;;;1.87;1.80;;;1.20;97.30;;;;;;5098409;28;20462;-86
2023/01/22 09:59:49;;;;;;;2.40;2.20;;;1.30;97.30;;;;;;5098267;28;20185;-86
2023/01/22 10:02:36;;;;;;;3.80;2.70;;;1.20;97.30;;;;;;5098718;28;20417;-87
2023/01/22 10:05:17;;;;;;;2.90;2.60;;;1.30;97.30;;;;;;5098501;28;20451;-87
2023/01/22 10:07:49;;;;;;;3.20;2.77;;;1.30;97.30;;;;;;5099049;28;20932;-87
2023/01/22 10:10:22;;;;;;;4.17;3.93;;;1.30;97.30;;;;;;5098356;28;20775;-87
2023/01/22 10:12:57;;;;;;;3.83;1.70;;;1.30;97.30;;;;;;5098443;28;20403;-87
2023/01/22 10:15:24;;;;;;;2.43;2.20;;;1.30;97.30;;;;;;5098575;28;20467;-87
2023/01/22 10:17:51;;;;;;;1.97;1.87;;;1.30;97.30;;;;;;5116741;28;20940;-87
2023/01/22 10:20:19;;;;;;;2.13;1.90;;;1.30;97.30;;;;;;5098827;28;20785;-86
2023/01/22 10:22:44;;;;;;;6.37;5.07;;;1.30;97.30;;;;;;5083394;28;20456;-87
2023/01/22 10:25:14;;;;;;;1.77;1.67;;;1.30;97.30;;;;;;5077392;28;20432;-88
2023/01/22 10:27:42;;;;;;;2.47;2.27;;;1.30;97.30;;;;;;5079012;28;20170;-90
2023/01/22 10:30:13;;;;;;;1.50;1.40;;;1.30;97.30;;;;;;5078372;28;20945;-88
2023/01/22 10:32:39;;;;;;;2.80;2.60;;;1.30;97.30;;;;;;5078812;28;21007;-87
2023/01/22 10:35:18;;;;;;;4.17;2.90;;;1.30;97.30;;;;;;5087965;28;20435;-87
2023/01/22 10:37:48;;;;;;;2.47;2.30;;;1.30;97.30;;;;;;5098201;28;20466;-87
2023/01/22 10:40:26;;;;;;;1.60;1.50;;;1.30;97.30;;;;;;5100073;28;20407;-86
2023/01/22 10:43:12;;;;;;;8.47;2.70;;;1.30;97.30;;;;;;5098161;28;20419;-87
2023/01/22 10:45:55;;;;;;;3.70;1.73;;;1.40;97.30;;;;;;5096600;28;20449;-87
2023/01/22 10:48:21;;;;;;;2.37;2.13;;;1.40;97.30;;;;;;5097473;28;20506;-88
2023/01/22 10:51:15;;;;;;;1.87;1.77;;;1.30;97.30;;;;;;5097203;28;20446;-88
2023/01/22 10:53:48;;;;;;;1.80;1.70;;;1.30;97.30;;;;;;5097074;28;20780;-88
2023/01/22 10:56:26;;;;;;;2.23;2.03;;;1.30;97.30;;;;;;5095512;28;20478;-87
2023/01/22 10:58:52;;;;;;;2.80;1.93;;;1.30;97.30;;;;;;5097074;28;20450;-88
2023/01/22 11:01:35;;;;;;;3.07;2.50;;;1.40;97.30;;;;;;5097173;28;20440;-88
2023/01/22 11:04:29;;;;;;;5.47;3.00;;;1.40;97.30;;;;;;5096819;28;20404;-88
2023/01/22 11:07:03;;;;;;;3.03;2.30;;;1.40;97.30;;;;;;5097421;28;20519;-88
2023/01/22 11:09:29;;;;;;;7.60;3.17;;;1.40;97.30;;;;;;5097201;28;20412;-89
2023/01/22 11:12:03;;;;;;;4.47;1.40;;;1.30;97.30;;;;;;5096812;28;20422;-88
2023/01/22 11:14:32;;;;;;;2.50;2.30;;;1.30;97.30;;;;;;5097433;28;20201;-88
2023/01/22 11:17:08;;;;;;;2.87;2.67;;;1.30;97.30;;;;;;5097259;28;20924;-88
2023/01/22 11:19:40;;;;;;;2.20;2.00;;;1.30;97.30;;;;;;5115429;28;20499;-88
2023/01/22 11:22:22;;;;;;;3.03;2.70;;;1.30;97.30;;;;;;5091396;28;20571;-87
2023/01/22 11:24:48;;;;;;;3.03;2.63;;;1.30;97.30;;;;;;5093511;28;20443;-88
2023/01/22 11:27:42;;;;;;;6.40;2.10;;;1.30;97.30;;;;;;5092987;28;20413;-87
2023/01/22 11:30:46;;;;;;;5.87;2.77;;;1.30;97.30;;;;;;5075160;28;20183;-87
2023/01/22 11:33:47;;;;;;;3.60;2.40;;;1.30;97.30;;;;;;5092983;28;20420;-87
2023/01/22 11:36:23;;;;;;;3.63;2.80;;;1.40;97.30;;;;;;5033551;28;20838;-88
2023/01/22 11:39:08;;;;;;;3.17;2.63;;;1.40;97.30;;;;;;5075416;28;20424;-87
2023/01/22 11:41:50;;;;;;;2.47;1.83;;;1.40;97.30;;;;;;5075279;28;20439;-87
2023/01/22 11:44:33;;;;;;;2.70;1.97;;;1.40;97.30;;;;;;5075745;28;20431;-87
2023/01/22 11:47:36;;;;;;;2.20;2.00;;;1.40;97.30;;;;;;5090653;28;20430;-87
2023/01/22 11:50:23;;;;;;;4.33;3.00;;;1.50;97.30;;;;;;5104281;28;20456;-89
2023/01/22 11:53:00;;;;;;;3.07;2.87;;;1.50;97.30;;;;;;5077983;28;20401;-90
2023/01/22 11:55:53;;;;;;;1.53;1.53;;;1.50;97.30;;;;;;5069657;28;20479;-88
2023/01/22 11:58:41;;;;;;;2.40;2.17;;;1.50;97.30;;;;;;5073888;28;20466;-87
2023/01/22 12:01:16;;;;;;;5.13;2.50;;;1.50;97.30;;;;;;5091943;28;20413;-87
2023/01/22 12:03:53;;;;;;;3.80;2.80;;;1.50;97.30;;;;;;5092109;28;20422;-87
2023/01/22 12:06:26;;;;;;;11.40;3.80;;;1.50;97.30;;;;;;5093426;28;20464;-87
2023/01/22 12:09:01;;;;;;;3.00;2.40;;;1.50;97.30;;;;;;5093083;28;20432;-88
2023/01/22 12:11:51;;;;;;;10.23;1.93;;;1.50;97.30;;;;;;5092337;28;20507;-87
2023/01/22 12:14:46;;;;;;;6.03;2.90;;;1.50;97.30;;;;;;5090236;28;20424;-90
2023/01/22 12:17:45;;;;;;;4.00;3.80;;;1.50;97.30;;;;;;5090075;28;20471;-87
2023/01/22 12:20:41;;;;;;;3.57;3.37;;;1.50;97.30;;;;;;5089971;28;20412;-87
2023/01/22 12:23:27;;;;;;;1.87;1.77;;;1.60;97.30;;;;;;5089972;28;20891;-88
2023/01/22 12:25:59;;;;;;;2.63;2.20;;;1.60;97.30;;;;;;5090238;28;20534;-87
2023/01/22 12:28:46;;;;;;;1.80;1.70;;;1.60;97.30;;;;;;5090798;28;20444;-88
2023/01/22 12:31:25;;;;;;;5.33;4.63;;;1.60;97.30;;;;;;5090076;28;20931;-87
2023/01/22 12:33:50;;;;;;;6.33;2.57;;;1.60;97.30;;;;;;5090267;28;20808;-87
2023/01/22 12:36:20;;;;;;;2.00;1.87;;;1.60;97.30;;;;;;5075819;28;20482;-88
2023/01/22 12:39:08;;;;;;;2.83;2.53;;;1.60;97.30;;;;;;5073573;28;20177;-87
2023/01/22 12:41:59;;;;;;;2.50;1.93;;;1.70;97.30;;;;;;5073993;28;20424;-87
2023/01/22 12:44:29;;;;;;;2.70;2.50;;;1.70;97.30;;;;;;5090966;28;20437;-88
2023/01/22 12:47:04;;;;;;;5.60;4.33;;;1.70;97.30;;;;;;5091821;28;20914;-87
2023/01/22 12:49:29;;;;;;;6.43;3.13;;;1.70;97.30;;;;;;5090627;28;20462;-87
2023/01/22 12:51:58;;;;;;;4.90;2.97;;;1.70;97.30;;;;;;5073232;28;20451;-86
2023/01/22 12:54:34;;;;;;;3.23;2.40;;;1.70;97.30;;;;;;5054505;28;20203;-86
2023/01/22 12:57:15;;;;;;;1.93;1.83;;;1.80;97.30;;;;;;5054379;28;20533;-86
2023/01/22 12:59:47;;;;;;;2.40;1.93;;;1.80;97.30;;;;;;5053898;28;20439;-87
2023/01/22 13:02:34;;;;;;;2.30;1.93;;;1.70;97.30;;;;;;5054331;28;20402;-87
2023/01/22 13:05:29;;;;;;;11.43;3.13;;;1.70;97.30;;;;;;5053785;28;20795;-87
2023/01/22 13:08:19;;;;;;;2.97;2.77;;;1.80;97.30;;;;;;5053213;28;20417;-88
2023/01/22 13:11:01;;;;;;;6.40;3.77;;;1.80;97.30;;;;;;5053972;28;20924;-86
2023/01/22 13:13:48;;;;;;;4.50;3.83;;;1.80;97.30;;;;;;5053519;28;20445;-86
2023/01/22 13:16:36;;;;;;;5.27;4.20;;;1.90;97.30;;;;;;5053877;28;20457;-87
2023/01/22 13:19:21;;;;;;;11.20;2.47;;;1.90;97.30;;;;;;5053216;28;20501;-87
2023/01/22 13:21:47;;;;;;;3.47;3.00;;;1.90;97.30;;;;;;5053422;28;20416;-87